sensor_id;sensor_type;location;lat;lon;timestamp;pressure;altitude;pressure_sealevel;temperature;humidity
23223;BME280;11780;13.904;100.620;2023-07-24T00:01:59;100814.31;;;30.75;72.12
23223;BME280;11780;13.904;100.620;2023-07-24T00:04:33;100812.03;;;30.77;72.29
23223;BME280;11780;13.904;100.620;2023-07-24T00:07:03;100807.16;;;30.74;72.33
23223;BME280;11780;13.904;100.620;2023-07-24T00:09:34;100816.72;;;30.77;72.34
23223;BME280;11780;13.904;100.620;2023-07-24T00:12:04;100805.69;;;30.77;72.22
23223;BME280;11780;13.904;100.620;2023-07-24T00:14:35;100803.75;;;30.77;72.60
23223;BME280;11780;13.904;100.620;2023-07-24T00:17:05;100808.78;;;30.75;72.38
23223;BME280;11780;13.904;100.620;2023-07-24T00:19:36;100810.41;;;30.76;72.42
23223;BME280;11780;13.904;100.620;2023-07-24T00:22:06;100807.31;;;30.78;72.50
23223;BME280;11780;13.904;100.620;2023-07-24T00:24:36;100812.19;;;30.81;72.23
23223;BME280;11780;13.904;100.620;2023-07-24T00:27:07;100822.09;;;30.82;72.40
23223;BME280;11780;13.904;100.620;2023-07-24T00:29:39;100817.22;;;30.79;72.38
23223;BME280;11780;13.904;100.620;2023-07-24T00:32:09;100827.28;;;30.83;72.39
23223;BME280;11780;13.904;100.620;2023-07-24T00:34:39;100831.22;;;30.82;72.55
23223;BME280;11780;13.904;100.620;2023-07-24T00:37:10;100833.66;;;30.84;72.50
23223;BME280;11780;13.904;100.620;2023-07-24T00:39:40;100841.44;;;30.82;72.58
23223;BME280;11780;13.904;100.620;2023-07-24T00:42:10;100839.31;;;30.79;72.37
23223;BME280;11780;13.904;100.620;2023-07-24T00:44:40;100839.97;;;30.84;72.51
23223;BME280;11780;13.904;100.620;2023-07-24T00:47:11;100851.84;;;30.85;72.43
23223;BME280;11780;13.904;100.620;2023-07-24T00:49:41;100850.22;;;30.84;72.13
23223;BME280;11780;13.904;100.620;2023-07-24T00:52:12;100851.22;;;30.88;72.24
23223;BME280;11780;13.904;100.620;2023-07-24T00:54:45;100860.63;;;30.87;72.30
23223;BME280;11780;13.904;100.620;2023-07-24T00:57:16;100852.97;;;30.84;72.39
23223;BME280;11780;13.904;100.620;2023-07-24T00:59:47;100866.31;;;30.91;72.01
23223;BME280;11780;13.904;100.620;2023-07-24T01:02:17;100872.63;;;30.91;71.88
23223;BME280;11780;13.904;100.620;2023-07-24T01:04:48;100871.84;;;30.91;71.99
23223;BME280;11780;13.904;100.620;2023-07-24T01:07:20;100891.69;;;30.93;71.83
23223;BME280;11780;13.904;100.620;2023-07-24T01:09:50;100891.97;;;30.91;71.63
23223;BME280;11780;13.904;100.620;2023-07-24T01:15:12;100898.50;;;30.95;71.28
23223;BME280;11780;13.904;100.620;2023-07-24T01:17:49;100892.19;;;30.95;71.17
23223;BME280;11780;13.904;100.620;2023-07-24T01:20:21;100900.47;;;30.95;71.10
23223;BME280;11780;13.904;100.620;2023-07-24T01:23:13;100904.53;;;30.97;71.32
23223;BME280;11780;13.904;100.620;2023-07-24T01:26:05;100910.88;;;30.98;70.95
23223;BME280;11780;13.904;100.620;2023-07-24T01:28:36;100907.78;;;30.99;70.58
23223;BME280;11780;13.904;100.620;2023-07-24T01:31:06;100918.66;;;30.96;70.18
23223;BME280;11780;13.904;100.620;2023-07-24T01:33:37;100911.69;;;30.98;70.69
23223;BME280;11780;13.904;100.620;2023-07-24T01:36:09;100910.88;;;30.98;70.26
23223;BME280;11780;13.904;100.620;2023-07-24T01:38:41;100912.47;;;30.99;70.03
23223;BME280;11780;13.904;100.620;2023-07-24T01:41:11;100915.44;;;31.03;69.90
23223;BME280;11780;13.904;100.620;2023-07-24T01:43:43;100911.34;;;31.00;69.71
23223;BME280;11780;13.904;100.620;2023-07-24T01:46:13;100917.06;;;31.04;69.18
23223;BME280;11780;13.904;100.620;2023-07-24T01:48:43;100919.63;;;31.00;69.19
23223;BME280;11780;13.904;100.620;2023-07-24T01:51:13;100915.56;;;30.97;69.68
23223;BME280;11780;13.904;100.620;2023-07-24T01:53:44;100926.63;;;30.97;69.45
23223;BME280;11780;13.904;100.620;2023-07-24T01:56:14;100921.25;;;31.01;68.81
23223;BME280;11780;13.904;100.620;2023-07-24T01:58:44;100923.53;;;30.99;68.63
23223;BME280;11780;13.904;100.620;2023-07-24T02:01:15;100934.78;;;31.03;68.91
23223;BME280;11780;13.904;100.620;2023-07-24T02:03:45;100932.31;;;31.01;68.92
23223;BME280;11780;13.904;100.620;2023-07-24T02:06:16;100931.50;;;31.01;68.36
23223;BME280;11780;13.904;100.620;2023-07-24T02:08:46;100935.41;;;30.99;66.97
23223;BME280;11780;13.904;100.620;2023-07-24T02:11:18;100935.41;;;30.99;66.66
23223;BME280;11780;13.904;100.620;2023-07-24T02:13:49;100941.56;;;30.96;67.09
23223;BME280;11780;13.904;100.620;2023-07-24T02:16:19;100940.94;;;30.99;66.67
23223;BME280;11780;13.904;100.620;2023-07-24T02:18:49;100948.38;;;30.99;66.92
23223;BME280;11780;13.904;100.620;2023-07-24T02:21:20;100937.84;;;31.01;67.21
23223;BME280;11780;13.904;100.620;2023-07-24T02:23:50;100948.38;;;30.99;67.33
23223;BME280;11780;13.904;100.620;2023-07-24T02:26:20;100945.00;;;31.02;67.30
23223;BME280;11780;13.904;100.620;2023-07-24T02:28:51;100953.78;;;31.04;66.59
23223;BME280;11780;13.904;100.620;2023-07-24T02:31:21;100952.97;;;31.04;65.76
23223;BME280;11780;13.904;100.620;2023-07-24T02:33:51;100963.19;;;31.03;64.90
23223;BME280;11780;13.904;100.620;2023-07-24T02:36:22;100957.16;;;31.01;65.46
23223;BME280;11780;13.904;100.620;2023-07-24T02:38:53;100959.31;;;31.04;65.43
23223;BME280;11780;13.904;100.620;2023-07-24T02:41:23;100959.78;;;31.06;65.33
23223;BME280;11780;13.904;100.620;2023-07-24T02:43:53;100960.59;;;31.07;66.01
23223;BME280;11780;13.904;100.620;2023-07-24T02:46:24;100955.56;;;31.09;65.98
23223;BME280;11780;13.904;100.620;2023-07-24T02:48:55;100959.47;;;31.08;65.05
23223;BME280;11780;13.904;100.620;2023-07-24T02:51:25;100953.31;;;31.11;64.93
23223;BME280;11780;13.904;100.620;2023-07-24T02:53:56;100948.25;;;31.04;65.62
23223;BME280;11780;13.904;100.620;2023-07-24T02:56:26;100942.25;;;31.11;66.03
23223;BME280;11780;13.904;100.620;2023-07-24T02:58:56;100943.88;;;31.12;65.31
23223;BME280;11780;13.904;100.620;2023-07-24T03:01:27;100944.22;;;31.10;65.05
23223;BME280;11780;13.904;100.620;2023-07-24T03:03:57;100942.88;;;31.08;64.87
23223;BME280;11780;13.904;100.620;2023-07-24T03:06:27;100944.72;;;31.12;64.94
23223;BME280;11780;13.904;100.620;2023-07-24T03:08:58;100943.63;;;31.13;65.17
23223;BME280;11780;13.904;100.620;2023-07-24T03:11:29;100935.09;;;31.10;64.75
23223;BME280;11780;13.904;100.620;2023-07-24T03:13:59;100929.81;;;31.13;65.45
23223;BME280;11780;13.904;100.620;2023-07-24T03:16:30;100928.97;;;31.13;64.66
23223;BME280;11780;13.904;100.620;2023-07-24T03:19:00;100937.13;;;31.18;65.15
23223;BME280;11780;13.904;100.620;2023-07-24T03:21:31;100930.25;;;31.16;65.97
23223;BME280;11780;13.904;100.620;2023-07-24T03:24:01;100929.13;;;31.17;65.00
23223;BME280;11780;13.904;100.620;2023-07-24T03:26:31;100918.41;;;31.15;65.44
23223;BME280;11780;13.904;100.620;2023-07-24T03:29:01;100918.91;;;31.17;64.63
23223;BME280;11780;13.904;100.620;2023-07-24T03:31:32;100917.91;;;31.13;65.67
23223;BME280;11780;13.904;100.620;2023-07-24T03:34:02;100911.13;;;31.19;65.81
23223;BME280;11780;13.904;100.620;2023-07-24T03:36:32;100919.06;;;31.21;65.83
23223;BME280;11780;13.904;100.620;2023-07-24T03:39:03;100911.59;;;31.21;65.27
23223;BME280;11780;13.904;100.620;2023-07-24T03:41:34;100912.06;;;31.23;64.74
23223;BME280;11780;13.904;100.620;2023-07-24T03:44:04;100906.72;;;31.18;64.63
23223;BME280;11780;13.904;100.620;2023-07-24T03:46:35;100901.84;;;31.15;65.08
23223;BME280;11780;13.904;100.620;2023-07-24T03:49:05;100910.28;;;31.19;65.11
23223;BME280;11780;13.904;100.620;2023-07-24T03:51:36;100907.22;;;31.20;65.02
23223;BME280;11780;13.904;100.620;2023-07-24T03:54:06;100909.00;;;31.16;65.58
23223;BME280;11780;13.904;100.620;2023-07-24T03:56:36;100897.28;;;31.19;65.47
23223;BME280;11780;13.904;100.620;2023-07-24T03:59:07;100896.63;;;31.22;65.07
23223;BME280;11780;13.904;100.620;2023-07-24T04:01:37;100886.41;;;31.23;64.98
23223;BME280;11780;13.904;100.620;2023-07-24T04:04:07;100891.59;;;31.24;64.06
23223;BME280;11780;13.904;100.620;2023-07-24T04:06:38;100878.13;;;31.23;64.29
23223;BME280;11780;13.904;100.620;2023-07-24T04:09:08;100876.66;;;31.25;64.46
23223;BME280;11780;13.904;100.620;2023-07-24T04:11:42;100875.50;;;31.26;63.67
23223;BME280;11780;13.904;100.620;2023-07-24T04:14:12;100874.06;;;31.20;64.03
23223;BME280;11780;13.904;100.620;2023-07-24T04:16:43;100866.09;;;31.27;63.85
23223;BME280;11780;13.904;100.620;2023-07-24T04:19:14;100875.00;;;31.24;64.36
23223;BME280;11780;13.904;100.620;2023-07-24T04:21:45;100862.66;;;31.22;64.27
23223;BME280;11780;13.904;100.620;2023-07-24T04:24:15;100852.59;;;31.26;64.91
23223;BME280;11780;13.904;100.620;2023-07-24T04:26:45;100858.28;;;31.29;63.98
23223;BME280;11780;13.904;100.620;2023-07-24T04:29:16;100856.31;;;31.30;63.47
23223;BME280;11780;13.904;100.620;2023-07-24T04:31:46;100862.03;;;31.34;63.69
23223;BME280;11780;13.904;100.620;2023-07-24T04:34:16;100855.53;;;31.29;63.67
23223;BME280;11780;13.904;100.620;2023-07-24T04:36:47;100844.97;;;31.32;63.88
23223;BME280;11780;13.904;100.620;2023-07-24T04:39:17;100845.47;;;31.34;63.68
23223;BME280;11780;13.904;100.620;2023-07-24T04:41:47;100839.94;;;31.34;63.44
23223;BME280;11780;13.904;100.620;2023-07-24T04:44:18;100843.19;;;31.36;63.50
23223;BME280;11780;13.904;100.620;2023-07-24T04:46:48;100837.81;;;31.39;63.16
23223;BME280;11780;13.904;100.620;2023-07-24T04:49:20;100837.16;;;31.42;62.90
23223;BME280;11780;13.904;100.620;2023-07-24T04:51:51;100833.09;;;31.40;62.39
23223;BME280;11780;13.904;100.620;2023-07-24T04:54:21;100830.81;;;31.42;62.83
23223;BME280;11780;13.904;100.620;2023-07-24T04:56:51;100840.41;;;31.44;62.25
23223;BME280;11780;13.904;100.620;2023-07-24T04:59:21;100827.56;;;31.40;62.36
23223;BME280;11780;13.904;100.620;2023-07-24T05:01:53;100831.63;;;31.42;61.98
23223;BME280;11780;13.904;100.620;2023-07-24T05:04:24;100817.81;;;31.42;61.82
23223;BME280;11780;13.904;100.620;2023-07-24T05:06:54;100817.47;;;31.44;62.05
23223;BME280;11780;13.904;100.620;2023-07-24T05:09:25;100814.38;;;31.46;62.43
23223;BME280;11780;13.904;100.620;2023-07-24T05:11:55;100804.00;;;31.42;62.06
23223;BME280;11780;13.904;100.620;2023-07-24T05:14:25;100804.66;;;31.39;62.36
23223;BME280;11780;13.904;100.620;2023-07-24T05:16:55;100800.09;;;31.43;62.26
23223;BME280;11780;13.904;100.620;2023-07-24T05:19:26;100790.97;;;31.43;62.50
23223;BME280;11780;13.904;100.620;2023-07-24T05:21:56;100787.56;;;31.46;62.16
23223;BME280;11780;13.904;100.620;2023-07-24T05:24:26;100787.91;;;31.44;62.49
23223;BME280;11780;13.904;100.620;2023-07-24T05:26:57;100776.16;;;31.48;62.37
23223;BME280;11780;13.904;100.620;2023-07-24T05:29:27;100771.97;;;31.50;62.30
23223;BME280;11780;13.904;100.620;2023-07-24T05:31:57;100773.41;;;31.48;62.32
23223;BME280;11780;13.904;100.620;2023-07-24T05:34:28;100760.72;;;31.47;62.30
23223;BME280;11780;13.904;100.620;2023-07-24T05:36:58;100755.53;;;31.45;62.21
23223;BME280;11780;13.904;100.620;2023-07-24T05:39:29;100763.47;;;31.47;62.24
23223;BME280;11780;13.904;100.620;2023-07-24T05:42:00;100758.44;;;31.49;62.40
23223;BME280;11780;13.904;100.620;2023-07-24T05:44:30;100756.03;;;31.47;62.17
23223;BME280;11780;13.904;100.620;2023-07-24T05:47:00;100749.84;;;31.50;62.20
23223;BME280;11780;13.904;100.620;2023-07-24T05:49:31;100741.72;;;31.45;62.51
23223;BME280;11780;13.904;100.620;2023-07-24T05:52:01;100733.06;;;31.47;62.68
23223;BME280;11780;13.904;100.620;2023-07-24T05:54:32;100729.50;;;31.55;62.39
23223;BME280;11780;13.904;100.620;2023-07-24T05:57:02;100723.81;;;31.51;62.69
23223;BME280;11780;13.904;100.620;2023-07-24T05:59:33;100718.13;;;31.48;62.78
23223;BME280;11780;13.904;100.620;2023-07-24T06:02:03;100713.22;;;31.53;62.70
23223;BME280;11780;13.904;100.620;2023-07-24T06:04:35;100714.84;;;31.54;62.85
23223;BME280;11780;13.904;100.620;2023-07-24T06:07:06;100715.97;;;31.53;62.78
23223;BME280;11780;13.904;100.620;2023-07-24T06:09:36;100701.72;;;31.51;62.82
23223;BME280;11780;13.904;100.620;2023-07-24T06:12:07;100690.66;;;31.51;62.97
23223;BME280;11780;13.904;100.620;2023-07-24T06:14:37;100685.91;;;31.52;62.95
23223;BME280;11780;13.904;100.620;2023-07-24T06:17:08;100670.63;;;31.54;62.80
23223;BME280;11780;13.904;100.620;2023-07-24T06:19:39;100665.56;;;31.56;62.99
23223;BME280;11780;13.904;100.620;2023-07-24T06:22:09;100672.06;;;31.61;62.67
23223;BME280;11780;13.904;100.620;2023-07-24T06:24:39;100662.31;;;31.54;63.04
23223;BME280;11780;13.904;100.620;2023-07-24T06:27:10;100653.41;;;31.49;63.29
23223;BME280;11780;13.904;100.620;2023-07-24T06:29:40;100660.69;;;31.53;63.05
23223;BME280;11780;13.904;100.620;2023-07-24T06:32:10;100649.47;;;31.58;63.13
23223;BME280;11780;13.904;100.620;2023-07-24T06:34:41;100648.94;;;31.65;62.93
23223;BME280;11780;13.904;100.620;2023-07-24T06:37:11;100634.97;;;31.62;63.13
23223;BME280;11780;13.904;100.620;2023-07-24T06:39:49;100638.75;;;31.57;63.07
23223;BME280;11780;13.904;100.620;2023-07-24T06:42:19;100618.75;;;31.60;63.44
23223;BME280;11780;13.904;100.620;2023-07-24T06:44:49;100626.50;;;31.67;62.97
23223;BME280;11780;13.904;100.620;2023-07-24T06:47:20;100625.22;;;31.64;63.34
23223;BME280;11780;13.904;100.620;2023-07-24T06:49:51;100618.53;;;31.65;63.44
23223;BME280;11780;13.904;100.620;2023-07-24T06:52:21;100609.75;;;31.63;63.53
23223;BME280;11780;13.904;100.620;2023-07-24T06:54:51;100608.63;;;31.64;63.32
23223;BME280;11780;13.904;100.620;2023-07-24T06:57:21;100604.41;;;31.67;63.48
23223;BME280;11780;13.904;100.620;2023-07-24T06:59:52;100594.47;;;31.66;63.14
23223;BME280;11780;13.904;100.620;2023-07-24T07:02:22;100598.69;;;31.63;63.45
23223;BME280;11780;13.904;100.620;2023-07-24T07:04:53;100589.44;;;31.68;63.38
23223;BME280;11780;13.904;100.620;2023-07-24T07:07:23;100594.97;;;31.68;63.26
23223;BME280;11780;13.904;100.620;2023-07-24T07:09:53;100587.31;;;31.65;63.29
23223;BME280;11780;13.904;100.620;2023-07-24T07:12:24;100586.84;;;31.63;63.25
23223;BME280;11780;13.904;100.620;2023-07-24T07:14:54;100592.38;;;31.71;63.11
23223;BME280;11780;13.904;100.620;2023-07-24T07:17:24;100580.97;;;31.73;62.67
23223;BME280;11780;13.904;100.620;2023-07-24T07:19:55;100573.31;;;31.70;62.80
23223;BME280;11780;13.904;100.620;2023-07-24T07:22:27;100571.66;;;31.69;62.79
23223;BME280;11780;13.904;100.620;2023-07-24T07:24:57;100565.19;;;31.73;63.08
23223;BME280;11780;13.904;100.620;2023-07-24T07:27:27;100564.38;;;31.73;62.80
23223;BME280;11780;13.904;100.620;2023-07-24T07:29:58;100559.31;;;31.75;62.57
23223;BME280;11780;13.904;100.620;2023-07-24T07:32:28;100552.16;;;31.74;62.72
23223;BME280;11780;13.904;100.620;2023-07-24T07:34:58;100545.84;;;31.73;62.65
23223;BME280;11780;13.904;100.620;2023-07-24T07:37:29;100551.69;;;31.72;62.52
23223;BME280;11780;13.904;100.620;2023-07-24T07:39:59;100542.25;;;31.73;62.66
23223;BME280;11780;13.904;100.620;2023-07-24T07:42:29;100529.03;;;31.79;62.49
23223;BME280;11780;13.904;100.620;2023-07-24T07:45:00;100528.91;;;31.75;62.40
23223;BME280;11780;13.904;100.620;2023-07-24T07:47:30;100521.06;;;31.77;62.15
23223;BME280;11780;13.904;100.620;2023-07-24T07:50:00;100522.69;;;31.78;62.41
23223;BME280;11780;13.904;100.620;2023-07-24T07:52:31;100519.75;;;31.83;62.49
23223;BME280;11780;13.904;100.620;2023-07-24T07:55:01;100511.28;;;31.80;62.13
23223;BME280;11780;13.904;100.620;2023-07-24T07:57:34;100527.88;;;31.80;62.34
23223;BME280;11780;13.904;100.620;2023-07-24T08:00:06;100524.31;;;31.79;62.45
23223;BME280;11780;13.904;100.620;2023-07-24T08:02:38;100524.13;;;31.84;62.18
23223;BME280;11780;13.904;100.620;2023-07-24T08:05:11;100525.13;;;31.80;62.58
23223;BME280;11780;13.904;100.620;2023-07-24T08:07:47;100528.03;;;31.83;62.81
23223;BME280;11780;13.904;100.620;2023-07-24T08:10:17;100521.88;;;31.78;62.52
23223;BME280;11780;13.904;100.620;2023-07-24T08:12:48;100519.94;;;31.78;62.56
23223;BME280;11780;13.904;100.620;2023-07-24T08:15:18;100516.81;;;31.80;62.22
23223;BME280;11780;13.904;100.620;2023-07-24T08:17:48;100511.63;;;31.78;62.82
23223;BME280;11780;13.904;100.620;2023-07-24T08:20:19;100500.72;;;31.82;62.56
23223;BME280;11780;13.904;100.620;2023-07-24T08:22:49;100503.16;;;31.83;62.88
23223;BME280;11780;13.904;100.620;2023-07-24T08:25:19;100508.88;;;31.78;63.29
23223;BME280;11780;13.904;100.620;2023-07-24T08:27:50;100503.16;;;31.83;63.09
23223;BME280;11780;13.904;100.620;2023-07-24T08:30:33;100507.06;;;31.82;63.13
23223;BME280;11780;13.904;100.620;2023-07-24T08:33:04;100502.47;;;31.86;62.66
23223;BME280;11780;13.904;100.620;2023-07-24T08:35:34;100498.91;;;31.86;62.48
23223;BME280;11780;13.904;100.620;2023-07-24T08:38:05;100493.00;;;31.87;62.51
23223;BME280;11780;13.904;100.620;2023-07-24T08:40:35;100496.66;;;31.79;62.46
23223;BME280;11780;13.904;100.620;2023-07-24T08:43:05;100495.19;;;31.82;62.45
23223;BME280;11780;13.904;100.620;2023-07-24T08:45:37;100486.09;;;31.81;62.35
23223;BME280;11780;13.904;100.620;2023-07-24T08:48:08;100484.25;;;31.85;62.10
23223;BME280;11780;13.904;100.620;2023-07-24T08:50:39;100481.47;;;31.85;62.42
23223;BME280;11780;13.904;100.620;2023-07-24T08:53:10;100473.66;;;31.87;62.11
23223;BME280;11780;13.904;100.620;2023-07-24T08:55:41;100474.97;;;31.90;62.22
23223;BME280;11780;13.904;100.620;2023-07-24T08:58:12;100469.63;;;31.85;62.46
23223;BME280;11780;13.904;100.620;2023-07-24T09:00:42;100468.13;;;31.87;62.76
23223;BME280;11780;13.904;100.620;2023-07-24T09:03:12;100466.06;;;31.84;62.64
23223;BME280;11780;13.904;100.620;2023-07-24T09:05:43;100469.06;;;31.92;62.41
23223;BME280;11780;13.904;100.620;2023-07-24T09:08:13;100461.78;;;31.87;62.56
23223;BME280;11780;13.904;100.620;2023-07-24T09:10:44;100470.81;;;31.96;62.51
23223;BME280;11780;13.904;100.620;2023-07-24T09:13:14;100470.03;;;31.96;62.46
23223;BME280;11780;13.904;100.620;2023-07-24T09:15:45;100455.13;;;31.88;62.56
23223;BME280;11780;13.904;100.620;2023-07-24T09:18:16;100466.44;;;31.95;62.92
23223;BME280;11780;13.904;100.620;2023-07-24T09:20:48;100463.88;;;31.90;62.75
23223;BME280;11780;13.904;100.620;2023-07-24T09:23:27;100453.75;;;31.94;62.67
23223;BME280;11780;13.904;100.620;2023-07-24T09:25:58;100462.53;;;31.96;62.56
23223;BME280;11780;13.904;100.620;2023-07-24T09:28:28;100454.09;;;31.93;62.66
23223;BME280;11780;13.904;100.620;2023-07-24T09:30:59;100444.31;;;31.95;62.83
23223;BME280;11780;13.904;100.620;2023-07-24T09:36:07;100433.94;;;31.92;62.50
23223;BME280;11780;13.904;100.620;2023-07-24T09:38:39;100437.50;;;31.93;62.68
23223;BME280;11780;13.904;100.620;2023-07-24T09:41:10;100440.41;;;31.96;62.40
23223;BME280;11780;13.904;100.620;2023-07-24T09:43:41;100438.94;;;31.99;62.47
23223;BME280;11780;13.904;100.620;2023-07-24T09:46:11;100442.50;;;31.99;62.57
23223;BME280;11780;13.904;100.620;2023-07-24T09:48:42;100442.84;;;31.98;62.97
23223;BME280;11780;13.904;100.620;2023-07-24T09:51:32;100438.94;;;31.99;62.67
23223;BME280;11780;13.904;100.620;2023-07-24T09:56:50;100435.53;;;31.93;62.42
23223;BME280;11780;13.904;100.620;2023-07-24T09:59:37;100440.06;;;31.98;62.76
23223;BME280;11780;13.904;100.620;2023-07-24T10:02:10;100442.63;;;32.03;62.76
23223;BME280;11780;13.904;100.620;2023-07-24T10:04:41;100442.00;;;31.97;62.71
23223;BME280;11780;13.904;100.620;2023-07-24T10:07:13;100442.50;;;31.99;62.52
23223;BME280;11780;13.904;100.620;2023-07-24T10:09:44;100445.72;;;32.01;62.74
23223;BME280;11780;13.904;100.620;2023-07-24T10:12:15;100447.66;;;32.01;62.97
23223;BME280;11780;13.904;100.620;2023-07-24T10:14:47;100458.06;;;32.04;62.73
23223;BME280;11780;13.904;100.620;2023-07-24T10:17:37;100458.06;;;32.04;62.92
23223;BME280;11780;13.904;100.620;2023-07-24T10:20:10;100462.19;;;31.98;62.64
23223;BME280;11780;13.904;100.620;2023-07-24T10:22:41;100458.06;;;32.04;62.92
23223;BME280;11780;13.904;100.620;2023-07-24T10:25:12;100463.94;;;32.02;62.94
23223;BME280;11780;13.904;100.620;2023-07-24T10:27:44;100455.06;;;31.97;62.81
23223;BME280;11780;13.904;100.620;2023-07-24T10:30:15;100458.88;;;32.04;63.19
23223;BME280;11780;13.904;100.620;2023-07-24T10:33:44;100454.03;;;32.01;63.15
23223;BME280;11780;13.904;100.620;2023-07-24T10:36:08;100462.19;;;31.98;63.14
23223;BME280;11780;13.904;100.620;2023-07-24T10:38:43;100465.88;;;32.02;63.19
23223;BME280;11780;13.904;100.620;2023-07-24T10:41:14;100471.91;;;32.04;63.38
23223;BME280;11780;13.904;100.620;2023-07-24T10:43:49;100467.03;;;32.01;63.38
23223;BME280;11780;13.904;100.620;2023-07-24T10:46:20;100481.03;;;32.04;63.40
23223;BME280;11780;13.904;100.620;2023-07-24T10:48:51;100482.28;;;32.07;63.47
23223;BME280;11780;13.904;100.620;2023-07-24T10:51:21;100481.16;;;32.08;63.31
23223;BME280;11780;13.904;100.620;2023-07-24T10:53:51;100474.47;;;32.09;62.99
23223;BME280;11780;13.904;100.620;2023-07-24T10:56:23;100482.97;;;32.04;62.94
23223;BME280;11780;13.904;100.620;2023-07-24T10:58:53;100482.75;;;32.09;63.31
23223;BME280;11780;13.904;100.620;2023-07-24T11:01:24;100490.72;;;32.11;63.03
23223;BME280;11780;13.904;100.620;2023-07-24T11:03:54;100485.53;;;32.09;63.31
23223;BME280;11780;13.904;100.620;2023-07-24T11:06:25;100492.03;;;32.13;63.20
23223;BME280;11780;13.904;100.620;2023-07-24T11:08:57;100485.72;;;32.04;63.16
23223;BME280;11780;13.904;100.620;2023-07-24T11:11:31;100489.91;;;32.10;63.47
23223;BME280;11780;13.904;100.620;2023-07-24T11:14:03;100492.56;;;32.07;63.32
23223;BME280;11780;13.904;100.620;2023-07-24T11:16:34;100494.19;;;32.08;63.19
23223;BME280;11780;13.904;100.620;2023-07-24T11:19:04;100497.75;;;32.08;63.10
23223;BME280;11780;13.904;100.620;2023-07-24T11:21:36;100488.56;;;32.16;63.38
23223;BME280;11780;13.904;100.620;2023-07-24T11:24:06;100485.19;;;32.11;63.10
23223;BME280;11780;13.904;100.620;2023-07-24T11:26:39;100491.53;;;32.11;63.65
23223;BME280;11780;13.904;100.620;2023-07-24T11:29:13;100496.59;;;32.09;63.33
23223;BME280;11780;13.904;100.620;2023-07-24T11:31:43;100498.53;;;32.09;63.15
23223;BME280;11780;13.904;100.620;2023-07-24T11:34:14;100506.78;;;32.17;63.12
23223;BME280;11780;13.904;100.620;2023-07-24T11:36:44;100510.91;;;32.11;63.28
23223;BME280;11780;13.904;100.620;2023-07-24T11:39:22;100516.75;;;32.10;63.11
23223;BME280;11780;13.904;100.620;2023-07-24T11:41:52;100516.44;;;32.11;63.23
23223;BME280;11780;13.904;100.620;2023-07-24T11:44:27;100525.53;;;32.12;63.50
23223;BME280;11780;13.904;100.620;2023-07-24T11:47:05;100536.28;;;32.13;63.46
23223;BME280;11780;13.904;100.620;2023-07-24T11:49:35;100545.06;;;32.15;63.36
23223;BME280;11780;13.904;100.620;2023-07-24T11:52:07;100540.88;;;32.09;63.76
23223;BME280;11780;13.904;100.620;2023-07-24T11:54:37;100541.47;;;32.15;63.99
23223;BME280;11780;13.904;100.620;2023-07-24T11:57:16;100550.13;;;32.13;64.08
23223;BME280;11780;13.904;100.620;2023-07-24T11:59:47;100538.72;;;32.15;64.11
23223;BME280;11780;13.904;100.620;2023-07-24T12:02:18;100549.91;;;32.18;64.01
23223;BME280;11780;13.904;100.620;2023-07-24T12:04:57;100554.28;;;32.19;64.49
23223;BME280;11780;13.904;100.620;2023-07-24T12:07:32;100554.84;;;32.13;64.41
23223;BME280;11780;13.904;100.620;2023-07-24T12:10:04;100553.22;;;32.12;64.16
23223;BME280;11780;13.904;100.620;2023-07-24T12:51:06;100616.22;;;31.28;66.81
23223;BME280;11780;13.904;100.620;2023-07-24T12:53:36;100615.59;;;31.32;66.79
23223;BME280;11780;13.904;100.620;2023-07-24T12:56:26;100618.97;;;31.37;66.94
23223;BME280;11780;13.904;100.620;2023-07-24T12:58:57;100627.91;;;31.43;66.46
23223;BME280;11780;13.904;100.620;2023-07-24T13:01:28;100627.38;;;31.50;66.28
23223;BME280;11780;13.904;100.620;2023-07-24T13:03:59;100631.91;;;31.54;65.93
23223;BME280;11780;13.904;100.620;2023-07-24T13:06:29;100632.09;;;31.58;66.04
23223;BME280;11780;13.904;100.620;2023-07-24T13:09:00;100637.75;;;31.62;65.73
23223;BME280;11780;13.904;100.620;2023-07-24T13:11:30;100647.66;;;31.71;65.60
23223;BME280;11780;13.904;100.620;2023-07-24T13:14:01;100642.13;;;31.63;66.02
23223;BME280;11780;13.904;100.620;2023-07-24T13:16:31;100648.81;;;31.62;65.98
23223;BME280;11780;13.904;100.620;2023-07-24T13:19:02;100664.75;;;31.73;65.70
23223;BME280;11780;13.904;100.620;2023-07-24T13:21:32;100674.97;;;31.73;65.37
23223;BME280;11780;13.904;100.620;2023-07-24T13:24:03;100676.47;;;31.70;65.82
23223;BME280;11780;13.904;100.620;2023-07-24T13:26:33;100682.63;;;31.76;65.80
23223;BME280;11780;13.904;100.620;2023-07-24T13:29:04;100696.78;;;31.74;65.77
23223;BME280;11780;13.904;100.620;2023-07-24T13:31:34;100698.22;;;31.63;66.18
23223;BME280;11780;13.904;100.620;2023-07-24T13:34:04;100696.09;;;31.69;66.24
23223;BME280;11780;13.904;100.620;2023-07-24T13:36:35;100696.94;;;31.61;66.25
23223;BME280;11780;13.904;100.620;2023-07-24T13:39:06;100703.94;;;31.67;66.28